createdAt,value
2022-08-17T00:01:19.025Z,19.97
2022-08-17T00:04:10.774Z,19.95
2022-08-17T00:06:55.080Z,19.88
2022-08-17T00:09:38.412Z,19.82
2022-08-17T00:12:43.259Z,19.76
2022-08-17T00:15:27.649Z,19.72
2022-08-17T00:18:53.822Z,19.72
2022-08-17T00:21:15.315Z,19.72
2022-08-17T00:24:04.097Z,19.71
2022-08-17T00:26:47.436Z,19.71
2022-08-17T00:29:30.591Z,19.72
2022-08-17T00:33:13.886Z,19.75
2022-08-17T00:35:23.252Z,19.79
2022-08-17T00:38:09.770Z,19.77
2022-08-17T00:40:55.781Z,19.75
2022-08-17T00:43:44.776Z,19.69
2022-08-17T00:46:31.726Z,19.72
2022-08-17T00:49:19.585Z,19.78
2022-08-17T00:52:10.871Z,19.85
2022-08-17T00:54:56.673Z,19.91
2022-08-17T00:57:43.770Z,19.94
2022-08-17T01:00:35.337Z,19.93
2022-08-17T01:03:22.623Z,19.93
2022-08-17T01:06:09.177Z,19.94
2022-08-17T01:08:57.458Z,19.92
2022-08-17T01:11:41.028Z,19.88
2022-08-17T01:14:26.019Z,19.86
2022-08-17T01:17:10.243Z,19.86
2022-08-17T01:19:53.256Z,19.84
2022-08-17T01:22:37.701Z,19.82
2022-08-17T01:25:22.420Z,19.82
2022-08-17T01:28:05.590Z,19.83
2022-08-17T01:30:56.850Z,19.86
2022-08-17T01:33:42.275Z,19.88
2022-08-17T01:36:25.449Z,19.86
2022-08-17T01:39:17.318Z,19.87
2022-08-17T01:42:06.859Z,19.86
2022-08-17T01:44:53.363Z,19.85
2022-08-17T01:47:37.426Z,19.81
2022-08-17T01:50:23.777Z,19.78
2022-08-17T01:53:11.409Z,19.79
2022-08-17T01:56:00.576Z,19.73
2022-08-17T01:58:45.004Z,19.72
2022-08-17T02:01:34.778Z,19.71
2022-08-17T02:04:18.077Z,19.76
2022-08-17T02:07:01.228Z,19.77
2022-08-17T02:09:44.894Z,19.76
2022-08-17T02:12:39.890Z,19.73
2022-08-17T02:15:23.558Z,19.68
2022-08-17T02:18:07.509Z,19.64
2022-08-17T02:20:50.711Z,19.63
2022-08-17T02:23:38.508Z,19.59
2022-08-17T02:26:26.088Z,19.56
2022-08-17T02:29:12.077Z,19.54
2022-08-17T02:31:55.090Z,19.51
2022-08-17T02:34:38.120Z,19.47
2022-08-17T02:37:21.235Z,19.47
2022-08-17T02:40:06.255Z,19.47
2022-08-17T02:42:49.974Z,19.47
2022-08-17T02:45:34.788Z,19.46
2022-08-17T02:48:29.707Z,19.40
2022-08-17T02:51:14.362Z,19.34
2022-08-17T02:54:35.778Z,19.31
2022-08-17T02:57:00.920Z,19.27
2022-08-17T02:59:48.843Z,19.27
2022-08-17T03:02:39.492Z,19.27
2022-08-17T03:05:25.255Z,19.31
2022-08-17T03:08:11.753Z,19.36
2022-08-17T03:10:56.893Z,19.35
2022-08-17T03:13:39.902Z,19.42
2022-08-17T03:16:22.942Z,19.44
2022-08-17T03:19:07.321Z,19.50
2022-08-17T03:21:54.923Z,19.51
2022-08-17T03:24:38.509Z,19.50
2022-08-17T03:27:23.132Z,19.50
2022-08-17T03:30:08.463Z,19.50
2022-08-17T03:32:54.822Z,19.55
2022-08-17T03:35:41.372Z,19.61
2022-08-17T03:38:24.789Z,19.68
2022-08-17T03:41:08.668Z,19.72
2022-08-17T03:43:51.719Z,19.78
2022-08-17T03:46:54.479Z,19.83
2022-08-17T03:49:54.807Z,19.85
2022-08-17T03:52:56.643Z,19.88
2022-08-17T03:55:58.466Z,19.84
2022-08-17T03:58:41.455Z,19.82
2022-08-17T04:01:24.563Z,19.78
2022-08-17T04:04:07.766Z,19.73
2022-08-17T04:06:50.809Z,19.68
2022-08-17T04:09:36.614Z,19.67
2022-08-17T04:12:22.114Z,19.65
2022-08-17T04:15:06.716Z,19.59
2022-08-17T04:17:49.846Z,19.53
2022-08-17T04:20:33.186Z,19.50
2022-08-17T04:23:18.304Z,19.44
2022-08-17T04:26:02.871Z,19.43
2022-08-17T04:28:45.939Z,19.46
2022-08-17T04:31:29.459Z,19.51
2022-08-17T04:34:12.885Z,19.58
2022-08-17T04:36:56.277Z,19.63
2022-08-17T04:39:39.298Z,19.69
2022-08-17T04:42:22.795Z,19.70
2022-08-17T04:45:06.654Z,19.71
2022-08-17T04:47:49.665Z,19.76
2022-08-17T04:50:34.745Z,19.82
2022-08-17T04:53:19.408Z,19.86
2022-08-17T04:56:02.606Z,19.91
2022-08-17T04:58:49.792Z,19.96
2022-08-17T05:01:35.467Z,20.03
2022-08-17T05:04:34.489Z,20.11
2022-08-17T05:07:23.098Z,20.17
2022-08-17T05:10:08.114Z,20.23
2022-08-17T05:12:59.210Z,20.27
2022-08-17T05:15:47.717Z,20.36
2022-08-17T05:18:32.461Z,20.43
2022-08-17T05:21:16.424Z,20.47
2022-08-17T05:23:59.606Z,20.53
2022-08-17T05:26:42.590Z,20.59
2022-08-17T05:29:35.240Z,20.65
2022-08-17T05:32:39.111Z,20.70
2022-08-17T05:35:23.726Z,20.76
2022-08-17T05:38:08.077Z,20.79
2022-08-17T05:40:51.894Z,20.83
2022-08-17T05:43:36.959Z,20.86
2022-08-17T05:46:23.358Z,20.95
2022-08-17T05:49:09.174Z,21.04
2022-08-17T05:52:19.743Z,21.12
2022-08-17T05:55:15.388Z,21.18
2022-08-17T05:58:05.148Z,21.19
2022-08-17T06:00:55.957Z,21.24
2022-08-17T06:03:49.438Z,21.27
2022-08-17T06:06:41.682Z,21.36
2022-08-17T06:09:35.893Z,21.43
2022-08-17T06:12:35.916Z,21.49
2022-08-17T06:15:28.815Z,21.54
2022-08-17T06:18:17.278Z,21.62
2022-08-17T06:21:06.731Z,21.69
2022-08-17T06:23:56.993Z,21.78
2022-08-17T06:26:43.395Z,21.87
2022-08-17T06:29:38.582Z,21.94
2022-08-17T06:32:21.899Z,22.07
2022-08-17T06:35:07.482Z,22.13
2022-08-17T06:38:37.916Z,22.24
2022-08-17T06:41:28.859Z,22.36
2022-08-17T06:44:43.433Z,22.40
2022-08-17T06:47:32.486Z,22.49
2022-08-17T06:50:21.057Z,22.52
2022-08-17T06:53:13.999Z,22.58
2022-08-17T06:56:01.871Z,22.64
2022-08-17T06:58:46.742Z,22.69
2022-08-17T07:01:34.749Z,22.73
2022-08-17T07:04:22.518Z,22.82
2022-08-17T07:07:23.717Z,22.96
2022-08-17T07:10:09.820Z,23.04
2022-08-17T07:12:56.455Z,23.16
2022-08-17T07:15:43.611Z,23.21
2022-08-17T07:18:29.325Z,23.25
2022-08-17T07:21:30.683Z,23.33
2022-08-17T07:24:30.683Z,23.45
2022-08-17T07:27:16.753Z,23.54
2022-08-17T07:30:11.195Z,23.63
2022-08-17T07:32:58.418Z,23.68
2022-08-17T07:35:44.269Z,23.74
2022-08-17T07:38:29.459Z,23.76
2022-08-17T07:41:12.882Z,23.86
2022-08-17T07:43:57.551Z,23.95
2022-08-17T07:47:07.004Z,24.03
2022-08-17T07:49:51.385Z,24.11
2022-08-17T07:52:50.594Z,24.19
2022-08-17T07:55:40.509Z,24.28
2022-08-17T07:58:26.532Z,24.35
2022-08-17T08:01:13.521Z,24.44
2022-08-17T08:03:58.091Z,24.53
2022-08-17T08:06:52.661Z,24.61
2022-08-17T08:09:39.686Z,24.70
2022-08-17T08:12:30.555Z,24.81
2022-08-17T08:15:20.615Z,24.88
2022-08-17T08:18:06.530Z,24.91
2022-08-17T08:20:54.843Z,24.90
2022-08-17T08:23:46.358Z,24.92
2022-08-17T08:26:35.280Z,24.95
2022-08-17T08:29:28.585Z,24.98
2022-08-17T08:32:21.255Z,25.02
2022-08-17T08:35:08.395Z,25.07
2022-08-17T08:37:59.316Z,25.13
2022-08-17T08:41:06.976Z,25.22
2022-08-17T08:44:00.840Z,25.30
2022-08-17T08:46:53.229Z,25.36
2022-08-17T08:50:03.838Z,25.42
2022-08-17T08:53:04.737Z,25.51
2022-08-17T08:55:56.471Z,25.61
2022-08-17T08:58:51.599Z,25.67
2022-08-17T09:01:51.812Z,25.73
2022-08-17T09:05:13.293Z,25.73
2022-08-17T09:08:04.562Z,25.83
2022-08-17T09:10:59.605Z,25.93
2022-08-17T09:13:46.617Z,26.08
2022-08-17T09:16:42.207Z,26.19
2022-08-17T09:19:32.221Z,26.31
2022-08-17T09:22:25.951Z,26.45
2022-08-17T09:25:12.068Z,26.65
2022-08-17T09:28:00.658Z,26.86
2022-08-17T09:30:46.943Z,27.08
2022-08-17T09:33:32.715Z,27.27
2022-08-17T09:36:21.733Z,27.50
2022-08-17T09:39:09.978Z,27.71
2022-08-17T09:41:59.671Z,27.99
2022-08-17T09:44:50.095Z,28.31
2022-08-17T09:47:45.430Z,28.64
2022-08-17T09:50:55.568Z,28.88
2022-08-17T09:53:39.642Z,29.36
2022-08-17T09:56:46.029Z,29.87
2022-08-17T09:59:47.329Z,30.41
2022-08-17T10:02:51.279Z,30.90
2022-08-17T10:05:46.435Z,31.26
2022-08-17T10:08:38.771Z,31.71
2022-08-17T10:11:50.595Z,32.16
2022-08-17T10:14:44.152Z,32.53
2022-08-17T10:17:36.772Z,32.91
2022-08-17T10:20:26.973Z,33.12
2022-08-17T10:23:40.293Z,33.44
2022-08-17T10:26:28.183Z,33.87
2022-08-17T10:29:48.417Z,34.25
2022-08-17T10:32:36.220Z,34.61
2022-08-17T10:35:33.934Z,34.81
2022-08-17T10:38:36.462Z,35.09
2022-08-17T10:41:30.131Z,35.34
2022-08-17T10:44:38.353Z,35.43
2022-08-17T10:47:27.020Z,35.54
2022-08-17T10:50:46.227Z,35.61
2022-08-17T10:54:01.479Z,35.55
2022-08-17T10:57:05.175Z,35.66
2022-08-17T10:59:51.819Z,35.73
2022-08-17T11:02:45.801Z,35.91
2022-08-17T11:05:52.300Z,36.14
2022-08-17T11:09:03.860Z,36.29
2022-08-17T11:12:07.323Z,36.39
2022-08-17T11:15:04.502Z,36.32
2022-08-17T11:18:22.193Z,36.36
2022-08-17T11:21:30.219Z,36.09
2022-08-17T11:24:20.342Z,35.83
2022-08-17T11:27:12.351Z,35.82
2022-08-17T11:30:01.927Z,35.94
2022-08-17T11:32:54.804Z,36.13
2022-08-17T11:35:49.504Z,36.33
2022-08-17T11:38:46.967Z,36.44
2022-08-17T11:41:40.410Z,36.52
2022-08-17T11:44:37.761Z,36.61
2022-08-17T11:48:08.952Z,36.73
2022-08-17T11:51:16.955Z,36.96
2022-08-17T11:54:31.673Z,37.06
2022-08-17T11:57:52.411Z,37.20
2022-08-17T12:00:52.521Z,37.24
2022-08-17T12:03:54.451Z,37.25
2022-08-17T12:06:51.129Z,37.14
2022-08-17T12:09:42.333Z,37.16
2022-08-17T12:12:31.334Z,37.19
2022-08-17T12:15:19.194Z,37.26
2022-08-17T12:18:02.312Z,37.25
2022-08-17T12:20:56.056Z,37.36
2022-08-17T12:23:44.157Z,37.37
2022-08-17T12:26:32.113Z,37.32
2022-08-17T12:29:35.804Z,37.38
2022-08-17T12:32:22.934Z,37.26
2022-08-17T12:35:07.217Z,37.16
2022-08-17T12:37:51.322Z,37.15
2022-08-17T12:40:34.699Z,37.26
2022-08-17T12:43:23.414Z,37.32
2022-08-17T12:46:14.996Z,37.24
2022-08-17T12:49:12.931Z,37.16
2022-08-17T12:52:04.448Z,36.96
2022-08-17T12:54:54.938Z,36.83
2022-08-17T12:57:43.803Z,36.58
2022-08-17T13:00:31.213Z,36.13
2022-08-17T13:03:17.080Z,35.80
2022-08-17T13:06:01.946Z,35.65
2022-08-17T13:08:47.703Z,35.70
2022-08-17T13:11:30.695Z,35.88
2022-08-17T13:14:13.770Z,36.02
2022-08-17T13:17:00.294Z,36.03
2022-08-17T13:19:50.511Z,35.94
2022-08-17T13:22:33.826Z,35.86
2022-08-17T13:25:17.865Z,35.82
2022-08-17T13:28:00.889Z,35.83
2022-08-17T13:30:43.919Z,35.92
2022-08-17T13:33:43.303Z,36.02
2022-08-17T13:36:30.042Z,36.02
2022-08-17T13:39:19.831Z,35.91
2022-08-17T13:42:02.839Z,35.86
2022-08-17T13:44:45.855Z,35.92
2022-08-17T13:47:29.170Z,35.87
2022-08-17T13:50:22.509Z,35.86
2022-08-17T13:53:16.955Z,35.94
2022-08-17T13:56:00.977Z,36.07
2022-08-17T13:58:56.849Z,36.11
2022-08-17T14:01:42.443Z,36.05
2022-08-17T14:04:29.318Z,35.96
2022-08-17T14:07:30.354Z,35.75
2022-08-17T14:10:16.109Z,35.54
2022-08-17T14:12:59.626Z,35.32
2022-08-17T14:15:56.389Z,35.14
2022-08-17T14:18:55.946Z,35.07
2022-08-17T14:21:42.756Z,34.90
2022-08-17T14:24:29.570Z,34.71
2022-08-17T14:27:12.935Z,34.62
2022-08-17T14:29:56.584Z,34.59
2022-08-17T14:32:41.340Z,34.56
2022-08-17T14:35:25.127Z,34.59
2022-08-17T14:38:08.162Z,34.58
2022-08-17T14:40:52.881Z,34.57
2022-08-17T14:43:36.106Z,34.46
2022-08-17T14:46:19.158Z,34.34
2022-08-17T14:49:02.861Z,34.22
2022-08-17T14:51:46.693Z,34.06
2022-08-17T14:54:34.154Z,33.87
2022-08-17T14:57:33.393Z,33.77
2022-08-17T15:00:17.706Z,33.72
2022-08-17T15:03:02.356Z,33.62
2022-08-17T15:05:46.814Z,33.55
2022-08-17T15:08:30.065Z,33.50
2022-08-17T15:11:14.235Z,33.54
2022-08-17T15:13:58.643Z,33.53
2022-08-17T15:16:41.677Z,33.54
2022-08-17T15:19:24.700Z,33.52
2022-08-17T15:22:07.876Z,33.50
2022-08-17T15:24:50.928Z,33.43
2022-08-17T15:27:34.593Z,33.33
2022-08-17T15:30:19.261Z,33.28
2022-08-17T15:33:03.583Z,33.18
2022-08-17T15:35:50.573Z,33.09
2022-08-17T15:38:36.699Z,33.04
2022-08-17T15:41:20.588Z,32.95
2022-08-17T15:44:03.753Z,32.87
2022-08-17T15:46:49.715Z,32.77
2022-08-17T15:49:33.451Z,32.63
2022-08-17T15:52:19.260Z,32.43
2022-08-17T15:55:02.337Z,32.22
2022-08-17T15:57:45.339Z,32.05
2022-08-17T16:00:29.538Z,31.89
2022-08-17T16:04:01.255Z,31.78
2022-08-17T16:06:18.641Z,31.68
2022-08-17T16:09:01.731Z,31.64
2022-08-17T16:11:46.069Z,31.59
2022-08-17T16:14:37.316Z,31.52
2022-08-17T16:17:40.177Z,31.45
2022-08-17T16:20:25.150Z,31.37
2022-08-17T16:23:08.239Z,31.29
2022-08-17T16:25:53.733Z,31.25
2022-08-17T16:28:37.102Z,31.18
2022-08-17T16:31:20.256Z,31.07
2022-08-17T16:34:17.208Z,30.98
2022-08-17T16:37:02.928Z,30.89
2022-08-17T16:39:46.363Z,30.79
2022-08-17T16:42:32.731Z,30.71
2022-08-17T16:45:18.781Z,30.62
2022-08-17T16:48:01.740Z,30.55
2022-08-17T16:51:00.353Z,30.46
2022-08-17T16:53:48.545Z,30.39
2022-08-17T16:56:42.589Z,30.29
2022-08-17T16:59:30.429Z,30.19
2022-08-17T17:02:17.212Z,30.10
2022-08-17T17:05:06.896Z,29.98
2022-08-17T17:07:58.831Z,29.89
2022-08-17T17:10:45.748Z,29.74
2022-08-17T17:13:33.275Z,29.61
2022-08-17T17:16:21.650Z,29.49
2022-08-17T17:19:11.024Z,29.36
2022-08-17T17:22:04.139Z,29.23
2022-08-17T17:24:56.964Z,29.03
2022-08-17T17:27:49.432Z,28.81
2022-08-17T17:30:40.509Z,28.61
2022-08-17T17:33:34.103Z,28.46
2022-08-17T17:36:25.931Z,28.31
2022-08-17T17:39:14.350Z,28.13
2022-08-17T17:41:59.954Z,27.96
2022-08-17T17:44:47.855Z,27.82
2022-08-17T17:47:33.538Z,27.71
2022-08-17T17:50:18.839Z,27.60
2022-08-17T17:53:07.599Z,27.49
2022-08-17T17:56:02.774Z,27.34
2022-08-17T17:58:56.506Z,27.23
2022-08-17T18:01:50.709Z,27.09
2022-08-17T18:04:41.408Z,26.95
2022-08-17T18:07:35.062Z,26.79
2022-08-17T18:10:29.549Z,26.73
2022-08-17T18:13:27.953Z,26.63
2022-08-17T18:16:13.807Z,26.49
2022-08-17T18:18:58.619Z,26.40
2022-08-17T18:21:46.482Z,26.31
2022-08-17T18:24:31.434Z,26.20
2022-08-17T18:27:24.950Z,26.06
2022-08-17T18:30:28.891Z,25.92
2022-08-17T18:33:23.244Z,25.82
2022-08-17T18:36:08.892Z,25.73
2022-08-17T18:38:58.591Z,25.62
2022-08-17T18:41:42.468Z,25.52
2022-08-17T18:44:29.320Z,25.41
2022-08-17T18:47:16.282Z,25.31
2022-08-17T18:50:20.621Z,25.18
2022-08-17T18:53:26.634Z,25.05
2022-08-17T18:56:26.289Z,24.98
2022-08-17T18:59:18.604Z,24.92
2022-08-17T19:02:38.701Z,24.85
2022-08-17T19:05:35.334Z,24.79
2022-08-17T19:08:33.173Z,24.73
2022-08-17T19:11:24.852Z,24.68
2022-08-17T19:14:11.393Z,24.64
2022-08-17T19:17:00.076Z,24.61
2022-08-17T19:19:51.821Z,24.61
2022-08-17T19:22:50.790Z,24.49
2022-08-17T19:25:41.120Z,24.46
2022-08-17T19:28:28.524Z,24.43
2022-08-17T19:31:17.814Z,24.39
2022-08-17T19:34:02.805Z,24.39
2022-08-17T19:36:54.386Z,24.37
2022-08-17T19:39:48.193Z,24.33
2022-08-17T19:42:42.523Z,24.30
2022-08-17T19:45:42.170Z,24.27
2022-08-17T19:48:40.683Z,24.23
2022-08-17T19:51:31.031Z,24.20
2022-08-17T19:54:20.448Z,24.19
2022-08-17T19:57:10.463Z,24.16
2022-08-17T19:59:59.595Z,24.11
2022-08-17T20:02:49.093Z,24.08
2022-08-17T20:06:08.472Z,24.05
2022-08-17T20:08:42.245Z,24.05
2022-08-17T20:11:32.476Z,24.02
2022-08-17T20:14:19.216Z,24.00
2022-08-17T20:17:05.441Z,23.99
2022-08-17T20:19:55.442Z,23.97
2022-08-17T20:22:52.499Z,23.95
2022-08-17T20:25:43.726Z,23.95
2022-08-17T20:28:30.601Z,23.93
2022-08-17T20:31:42.073Z,23.90
2022-08-17T20:34:34.961Z,23.89
2022-08-17T20:37:29.775Z,23.86
2022-08-17T20:40:21.278Z,23.85
2022-08-17T20:43:42.936Z,23.83
2022-08-17T20:46:53.504Z,23.82
2022-08-17T20:49:50.192Z,23.80
2022-08-17T20:52:47.567Z,23.78
2022-08-17T20:55:58.113Z,23.78
2022-08-17T20:58:48.577Z,23.80
2022-08-17T21:01:39.985Z,23.84
2022-08-17T21:04:47.473Z,23.82
2022-08-17T21:07:45.883Z,23.82
2022-08-17T21:10:37.157Z,23.78
2022-08-17T21:13:53.175Z,23.77
2022-08-17T21:16:45.706Z,23.76
2022-08-17T21:20:07.708Z,23.71
2022-08-17T21:23:02.363Z,23.67
2022-08-17T21:26:04.209Z,23.65
2022-08-17T21:29:19.486Z,23.66
2022-08-17T21:32:24.442Z,23.70
2022-08-17T21:35:47.302Z,23.72
2022-08-17T21:38:37.990Z,23.72
2022-08-17T21:41:23.665Z,23.69
2022-08-17T21:44:14.399Z,23.67
2022-08-17T21:47:14.453Z,23.63
2022-08-17T21:50:16.093Z,23.59
2022-08-17T21:53:02.290Z,23.55
2022-08-17T21:55:50.275Z,23.51
2022-08-17T21:58:35.430Z,23.49
2022-08-17T22:01:27.101Z,23.49
2022-08-17T22:04:20.165Z,23.46
2022-08-17T22:07:06.378Z,23.47
2022-08-17T22:09:51.081Z,23.39
2022-08-17T22:12:35.361Z,23.35
2022-08-17T22:15:20.552Z,23.31
2022-08-17T22:18:05.177Z,23.32
2022-08-17T22:20:51.569Z,23.36
2022-08-17T22:23:55.366Z,23.38
2022-08-17T22:27:02.747Z,23.43
2022-08-17T22:29:57.346Z,23.47
2022-08-17T22:32:44.639Z,23.52
2022-08-17T22:35:39.957Z,23.55
2022-08-17T22:38:41.065Z,23.58
2022-08-17T22:41:51.294Z,23.62
2022-08-17T22:44:37.813Z,23.63
2022-08-17T22:47:32.091Z,23.60
2022-08-17T22:50:22.788Z,23.64
2022-08-17T22:53:34.248Z,23.76
2022-08-17T22:56:37.297Z,23.80
2022-08-17T22:59:46.208Z,23.83
2022-08-17T23:02:33.289Z,23.87
2022-08-17T23:05:21.811Z,23.87
2022-08-17T23:08:05.767Z,23.88
2022-08-17T23:10:49.491Z,23.91
2022-08-17T23:13:33.468Z,23.91
2022-08-17T23:16:16.567Z,23.93
2022-08-17T23:19:00.942Z,23.91
2022-08-17T23:21:45.781Z,23.90
2022-08-17T23:24:31.445Z,23.91
2022-08-17T23:27:14.458Z,23.87
2022-08-17T23:29:57.484Z,23.86
2022-08-17T23:32:53.377Z,23.81
2022-08-17T23:35:38.884Z,23.78
2022-08-17T23:38:27.119Z,23.77
2022-08-17T23:41:12.931Z,23.76
2022-08-17T23:43:56.288Z,23.76
2022-08-17T23:46:39.864Z,23.75
2022-08-17T23:49:24.444Z,23.77
2022-08-17T23:52:12.551Z,23.81
2022-08-17T23:54:58.769Z,23.84
2022-08-17T23:57:41.945Z,23.88
